• Join FlightAware (Why Join?)
  • Login
  • US Flag 
07:47PM EST


 

Airport Tracker/Info


-or-


 

Live Flight TrackerFlight Track Log ✈ CES5864 ✈ 26-Oct-2013 ✈ ZUJZ / JZH - ZUUU / CTU

Flight Track Log - Related Links

Times and Time Zones

All times are in EDT time to prevent confusion due to time zone crossing. See the CES5864 flight status page for this flight to view local times or setup timezone preferences in your user account.

Time Position Orientation Groundspeed Altitude Reporting Facility
EDT Latitude Longitude Course Direction KTS MPH feet Rate Location/Type
06:21AM 32.6040 104.3080 177° South 444 511 26,600  Level FlightAware
06:22AM 32.5290 104.2990 186° South 438 504 26,600  Level FlightAware
06:22AM 32.4350 104.2680 196° South 439 505 26,600  Level FlightAware
06:23AM 32.3820 104.2500 196° South 441 507 26,600  Level FlightAware
06:23AM 32.3100 104.2270 195° South 443 510 26,600  Level FlightAware
06:24AM 32.2420 104.2040 196° South 444 511 26,600  Level FlightAware
06:25AM 32.1630 104.1780 196° South 445 512 26,600  Level FlightAware
06:26AM 32.0240 104.1330 195° South 445 512 26,600  Level FlightAware
06:27AM 31.9270 104.1010 196° South 444 511 26,600  Level FlightAware
06:27AM 31.8250 104.0670 196° South 433 498 26,600  Level FlightAware
06:28AM 31.7580 104.0450 196° South 430 495 26,600 -720 Level FlightAware
06:29AM 31.6720 104.0170 195° South 425 489 25,700 -1,680 Descending FlightAware
06:30AM 31.5920 103.9910 195° South 418 481 24,200 -2,100 Descending FlightAware
06:30AM 31.5110 103.9650 195° South 410 472 22,700 -2,100 Descending FlightAware
06:31AM 31.4310 103.9390 195° South 402 463 21,200 -1,680 Descending FlightAware
06:32AM 31.3490 103.9120 196° South 398 458 20,200 -1,500 Descending FlightAware
06:32AM 31.2780 103.8890 195° South 385 443 19,100 -1,260 Descending FlightAware
06:33AM 31.2210 103.8710 195° South 379 436 18,700 -360 Descending FlightAware
06:34AM 31.1660 103.8530 196° South 378 435 18,700 -420 Level FlightAware
06:34AM 31.0950 103.8300 196° South 377 434 18,200 -1,260 Descending FlightAware
06:35AM 31.0150 103.8040 196° South 365 420 16,900 -1,620 Descending FlightAware
06:36AM 30.9570 103.7860 195° South 359 413 16,000 -1,620 Descending FlightAware
06:36AM 30.8880 103.7640 195° South 346 398 14,800 -1,680 Descending FlightAware
06:37AM 30.8190 103.7420 195° South 343 395 13,600 -1,800 Descending FlightAware
06:38AM 30.7590 103.7220 196° South 340 391 12,300 -1,440 Descending FlightAware
06:39AM 30.6820 103.6980 195° South 313 360 11,400 -960 Descending FlightAware
06:39AM 30.6240 103.6980 180° South 293 337 10,800 -1,080 Descending FlightAware
06:40AM 30.5770 103.7200 158° South 287 330 10,000 -1,020 Descending FlightAware
06:41AM 30.5210 103.7460 158° South 269 310 9,400 -660 Descending FlightAware
06:41AM 30.4760 103.7660 159° South 249 287 9,100 -720 Descending FlightAware
06:42AM 30.4330 103.7640 182° South 236 272 8,500 -720 Descending FlightAware
06:43AM 30.4020 103.7500 201° Southwest 210 242 8,300 -480 Descending FlightAware
06:43AM 30.3720 103.7360 202° Southwest 190 219 8,000 -780 Descending FlightAware
06:44AM 30.3320 103.7180 201° Southwest 192 221 7,300 -960 Descending FlightAware
06:45AM 30.3030 103.7220 173° South 185 213 6,700 -1,020 Descending FlightAware
06:45AM 30.2850 103.7590 119° Southeast 178 205 6,000 -960 Descending FlightAware
06:46AM 30.2950 103.7850 66° East 169 194 5,500 -960 Descending FlightAware
06:46AM 30.3110 103.8080 51° Northeast 170 196 5,000 -1,080 Descending FlightAware
06:47AM 30.3350 103.8390 48° Northeast 174 200 4,200 -960 Descending FlightAware
06:48AM 30.3540 103.8590 42° Northeast 167 192 3,800 -420 Descending FlightAware
06:48AM 30.3730 103.8690 24° Northeast 161 185 3,800  Level FlightAware
06:49AM 30.3970 103.8800 22° Northeast 159 183 3,800 -300 Level FlightAware
06:49AM 30.4230 103.8920 22° Northeast 146 168 3,500 -600 Descending FlightAware
06:50AM 30.4490 103.9040 22° Northeast 134 154 3,000 -720 Descending FlightAware
06:51AM 30.4750 103.9160 22° Northeast 138 159 2,500 -720 Descending FlightAware
06:52AM 30.5040 103.9290 21° North 141 162 1,900 -780 Descending FlightAware
06:52AM 30.5250 103.9390 22° Northeast 142 163 1,500 -720 Descending FlightAware
06:53AM 30.5370 103.9450 23° Northeast 76 87 -3,360 Descending FlightAware